createdAt,value
2022-12-26T00:00:59.630Z,100685.91
2022-12-26T00:03:27.087Z,100687.97
2022-12-26T00:05:54.051Z,100693.69
2022-12-26T00:08:20.914Z,100696.22
2022-12-26T00:10:47.822Z,100687.00
2022-12-26T00:13:39.580Z,100686.66
2022-12-26T00:16:26.557Z,100679.84
2022-12-26T00:18:56.845Z,100685.69
2022-12-26T00:21:27.215Z,100691.19
2022-12-26T00:23:56.109Z,100688.03
2022-12-26T00:26:24.607Z,100691.22
2022-12-26T00:28:51.542Z,100688.16
2022-12-26T00:31:21.668Z,100689.28
2022-12-26T00:33:48.535Z,100699.38
2022-12-26T00:36:24.872Z,100690.88
2022-12-26T00:38:52.571Z,100688.91
2022-12-26T00:41:21.111Z,100697.09
2022-12-26T00:43:49.136Z,100699.59
2022-12-26T00:46:17.179Z,100696.56
2022-12-26T00:48:44.172Z,100700.91
2022-12-26T00:51:11.263Z,100699.09
2022-12-26T00:53:38.803Z,100697.09
2022-12-26T00:56:06.012Z,100700.06
2022-12-26T00:58:36.061Z,100708.09
2022-12-26T01:01:17.784Z,100699.75
2022-12-26T01:03:45.597Z,100704.44
2022-12-26T01:06:13.616Z,100694.25
2022-12-26T01:08:40.705Z,100682.06
2022-12-26T01:11:13.383Z,100690.91
2022-12-26T01:13:40.563Z,100686.41
2022-12-26T01:16:08.011Z,100686.25
2022-12-26T01:18:36.095Z,100691.44
2022-12-26T01:21:06.412Z,100686.25
2022-12-26T01:23:33.639Z,100690.94
2022-12-26T01:26:16.774Z,100695.91
2022-12-26T01:28:51.608Z,100696.25
2022-12-26T01:31:19.828Z,100689.09
2022-12-26T01:33:47.530Z,100686.75
2022-12-26T01:36:16.042Z,100690.28
2022-12-26T01:38:43.078Z,100695.91
2022-12-26T01:41:16.968Z,100697.41
2022-12-26T01:43:53.542Z,100686.44
2022-12-26T01:46:43.050Z,100693.09
2022-12-26T01:49:37.121Z,100693.94
2022-12-26T01:52:09.741Z,100693.59
2022-12-26T01:54:42.958Z,100692.41
2022-12-26T01:57:24.281Z,100691.59
2022-12-26T01:59:52.736Z,100690.78
2022-12-26T02:02:21.344Z,100696.75
2022-12-26T02:05:11.135Z,100692.28
2022-12-26T02:07:44.266Z,100695.44
2022-12-26T02:10:17.229Z,100694.78
2022-12-26T02:12:44.759Z,100690.59
2022-12-26T02:15:15.857Z,100689.09
2022-12-26T02:17:43.488Z,100696.25
2022-12-26T02:20:21.008Z,100684.06
2022-12-26T02:23:06.125Z,100685.41
2022-12-26T02:25:54.151Z,100686.28
2022-12-26T02:28:33.246Z,100683.75
2022-12-26T02:31:13.051Z,100684.25
2022-12-26T02:33:53.175Z,100671.75
2022-12-26T02:36:38.583Z,100667.72
2022-12-26T02:39:42.472Z,100676.22
2022-12-26T02:42:15.707Z,100676.19
2022-12-26T02:45:11.139Z,100674.56
2022-12-26T02:48:11.610Z,100682.41
2022-12-26T02:51:31.287Z,100682.06
2022-12-26T02:54:37.737Z,100679.06
2022-12-26T02:57:27.189Z,100682.41
2022-12-26T03:00:20.725Z,100674.69
2022-12-26T03:03:23.333Z,100668.16
2022-12-26T03:06:24.568Z,100667.84
2022-12-26T03:09:22.324Z,100676.84
2022-12-26T03:12:18.836Z,100666.09
2022-12-26T03:14:52.552Z,100677.97
2022-12-26T03:17:49.834Z,100665.66
2022-12-26T03:20:18.778Z,100669.66
2022-12-26T03:22:54.460Z,100664.38
2022-12-26T03:25:48.909Z,100670.75
2022-12-26T03:28:16.114Z,100669.09
2022-12-26T03:30:52.427Z,100679.97
2022-12-26T03:33:40.852Z,100677.75
2022-12-26T03:36:12.151Z,100674.44
2022-12-26T03:39:08.112Z,100676.09
2022-12-26T03:42:35.261Z,100674.16
2022-12-26T03:45:40.597Z,100681.88
2022-12-26T03:48:34.881Z,100685.59
2022-12-26T03:51:30.891Z,100684.16
2022-12-26T03:54:27.704Z,100685.53
2022-12-26T03:57:19.257Z,100691.75
2022-12-26T04:00:12.892Z,100688.63
2022-12-26T04:27:57.675Z,100688.16
2022-12-26T04:30:43.301Z,100688.63
2022-12-26T04:33:54.945Z,100693.50
2022-12-26T04:36:51.017Z,100692.53
2022-12-26T04:39:42.192Z,100688.56
2022-12-26T04:42:28.899Z,100694.19
2022-12-26T04:44:57.623Z,100698.09
2022-12-26T04:47:25.341Z,100697.66
2022-12-26T04:50:10.921Z,100694.50
2022-12-26T04:52:58.312Z,100694.72
2022-12-26T04:55:31.794Z,100692.75
2022-12-26T04:57:59.606Z,100701.69
2022-12-26T05:00:28.811Z,100701.75
2022-12-26T05:03:19.156Z,100692.88
2022-12-26T05:06:09.283Z,100700.53
2022-12-26T05:08:58.104Z,100706.53
2022-12-26T05:11:25.373Z,100703.41
2022-12-26T05:13:53.749Z,100698.22
2022-12-26T05:16:39.592Z,100710.13
2022-12-26T05:19:27.518Z,100701.16
2022-12-26T05:22:12.962Z,100702.19
2022-12-26T05:25:00.133Z,100714.47
2022-12-26T05:27:55.680Z,100708.06
2022-12-26T05:30:22.864Z,100708.97
2022-12-26T05:33:08.531Z,100704.00
2022-12-26T05:35:35.772Z,100707.28
2022-12-26T05:38:03.966Z,100700.06
2022-12-26T05:40:31.085Z,100704.31
2022-12-26T05:42:58.001Z,100702.38
2022-12-26T05:45:24.872Z,100698.97
2022-12-26T05:47:58.464Z,100703.63
2022-12-26T05:50:25.307Z,100708.00
2022-12-26T05:52:52.370Z,100710.50
2022-12-26T05:55:19.475Z,100706.34
2022-12-26T05:57:46.290Z,100708.47
2022-12-26T06:00:13.921Z,100706.38
2022-12-26T06:02:40.831Z,100701.16
2022-12-26T06:05:08.131Z,100708.84
2022-12-26T06:07:34.985Z,100709.88
2022-12-26T06:10:01.923Z,100717.78
2022-12-26T06:12:28.964Z,100726.81
2022-12-26T06:14:55.834Z,100720.00
2022-12-26T06:17:22.666Z,100713.25
2022-12-26T06:19:49.537Z,100721.47
2022-12-26T06:22:16.353Z,100720.88
2022-12-26T06:24:43.187Z,100709.63
2022-12-26T06:27:10.032Z,100712.19
2022-12-26T06:29:36.866Z,100706.06
2022-12-26T06:32:05.032Z,100703.56
2022-12-26T06:34:31.937Z,100698.56
2022-12-26T06:36:58.710Z,100714.69
2022-12-26T06:39:25.589Z,100712.72
2022-12-26T06:41:53.036Z,100714.50
2022-12-26T06:44:20.052Z,100715.22
2022-12-26T06:46:46.969Z,100712.94
2022-12-26T06:49:13.904Z,100718.66
2022-12-26T06:51:41.272Z,100712.88
2022-12-26T06:54:09.491Z,100703.81
2022-12-26T06:56:36.453Z,100705.69
2022-12-26T06:59:05.808Z,100704.22
2022-12-26T07:01:34.650Z,100712.34
2022-12-26T07:04:01.867Z,100707.00
2022-12-26T07:06:34.222Z,100720.38
2022-12-26T07:09:05.179Z,100717.88
2022-12-26T07:11:35.893Z,100719.81
2022-12-26T07:14:03.499Z,100706.38
2022-12-26T07:16:30.883Z,100717.53
2022-12-26T07:18:58.920Z,100721.25
2022-12-26T07:21:27.937Z,100718.81
2022-12-26T07:23:55.403Z,100715.19
2022-12-26T07:26:23.528Z,100712.06
2022-12-26T07:28:59.873Z,100719.44
2022-12-26T07:31:30.278Z,100717.06
2022-12-26T07:33:57.459Z,100726.19
2022-12-26T07:36:25.458Z,100725.94
2022-12-26T07:38:52.371Z,100729.66
2022-12-26T07:41:38.773Z,100730.59
2022-12-26T07:44:06.373Z,100736.06
2022-12-26T07:46:34.022Z,100740.06
2022-12-26T07:49:01.239Z,100731.94
2022-12-26T07:51:28.588Z,100735.19
2022-12-26T07:53:55.533Z,100728.50
2022-12-26T07:56:22.344Z,100735.63
2022-12-26T07:58:52.719Z,100736.34
2022-12-26T08:01:20.063Z,100733.03
2022-12-26T08:03:49.631Z,100742.13
2022-12-26T08:06:18.125Z,100728.56
2022-12-26T08:08:50.802Z,100736.19
2022-12-26T08:11:22.687Z,100733.91
2022-12-26T08:13:50.311Z,100728.16
2022-12-26T08:16:17.969Z,100744.34
2022-12-26T08:18:45.003Z,100745.72
2022-12-26T08:21:12.881Z,100743.38
2022-12-26T08:23:39.812Z,100743.78
2022-12-26T08:26:08.822Z,100737.47
2022-12-26T08:28:36.245Z,100729.34
2022-12-26T08:31:08.394Z,100724.19
2022-12-26T08:33:36.025Z,100729.22
2022-12-26T08:36:13.210Z,100727.41
2022-12-26T08:38:41.145Z,100731.78
2022-12-26T08:41:08.231Z,100726.19
2022-12-26T08:46:23.154Z,100724.88
2022-12-26T08:48:50.949Z,100725.69
2022-12-26T08:51:23.253Z,100726.16
2022-12-26T08:53:51.961Z,100723.03
2022-12-26T08:56:21.707Z,100733.22
2022-12-26T08:58:49.237Z,100732.84
2022-12-26T09:01:19.060Z,100734.28
2022-12-26T09:03:47.071Z,100729.28
2022-12-26T09:06:15.414Z,100727.03
2022-12-26T09:08:42.789Z,100724.78
2022-12-26T09:11:15.844Z,100722.28
2022-12-26T09:13:43.836Z,100725.41
2022-12-26T09:16:13.458Z,100722.72
2022-12-26T09:18:40.726Z,100721.72
2022-12-26T09:21:09.814Z,100731.47
2022-12-26T09:23:37.843Z,100730.19
2022-12-26T09:26:10.729Z,100733.09
2022-12-26T09:28:38.997Z,100726.66
2022-12-26T09:31:13.471Z,100727.03
2022-12-26T09:33:40.682Z,100732.66
2022-12-26T09:36:15.039Z,100724.09
2022-12-26T09:38:44.562Z,100716.78
2022-12-26T09:41:30.065Z,100716.97
2022-12-26T09:44:10.060Z,100711.13
2022-12-26T09:46:36.854Z,100717.66
2022-12-26T09:49:16.318Z,100711.84
2022-12-26T09:51:47.553Z,100713.47
2022-12-26T09:54:27.459Z,100716.63
2022-12-26T09:57:03.456Z,100710.94
2022-12-26T10:00:05.602Z,100702.94
2022-12-26T10:02:39.436Z,100692.09
2022-12-26T10:05:06.987Z,100690.94
2022-12-26T10:07:44.267Z,100687.50
2022-12-26T10:10:14.174Z,100691.50
2022-12-26T10:12:46.900Z,100694.00
2022-12-26T10:15:40.316Z,100692.66
2022-12-26T10:18:15.920Z,100687.16
2022-12-26T10:20:53.135Z,100688.81
2022-12-26T10:23:33.973Z,100684.97
2022-12-26T10:26:29.391Z,100678.97
2022-12-26T10:29:11.109Z,100691.63
2022-12-26T10:31:40.363Z,100678.00
2022-12-26T10:34:29.374Z,100676.94
2022-12-26T10:37:10.567Z,100674.69
2022-12-26T10:39:48.762Z,100672.13
2022-12-26T10:42:18.438Z,100667.63
2022-12-26T10:44:45.342Z,100669.13
2022-12-26T10:47:24.356Z,100680.88
2022-12-26T10:49:51.227Z,100681.91
2022-12-26T10:52:21.398Z,100685.97
2022-12-26T10:55:29.034Z,100672.91
2022-12-26T10:57:42.551Z,100669.13
2022-12-26T11:00:28.435Z,100666.63
2022-12-26T11:03:10.939Z,100663.53
2022-12-26T11:08:43.387Z,100662.69
2022-12-26T11:11:21.109Z,100649.16
2022-12-26T11:14:03.308Z,100658.19
2022-12-26T11:16:40.371Z,100647.94
2022-12-26T11:19:26.979Z,100649.50
2022-12-26T11:21:53.972Z,100642.38
2022-12-26T11:24:21.319Z,100648.47
2022-12-26T11:26:48.915Z,100643.50
2022-12-26T11:29:21.244Z,100646.31
2022-12-26T11:31:58.995Z,100642.56
2022-12-26T11:34:52.223Z,100651.63
2022-12-26T11:37:34.216Z,100651.63
2022-12-26T11:40:02.973Z,100648.06
2022-12-26T11:42:29.843Z,100633.41
2022-12-26T11:44:59.963Z,100635.06
2022-12-26T11:47:29.430Z,100644.06
2022-12-26T11:50:10.074Z,100639.03
2022-12-26T11:52:44.617Z,100636.56
2022-12-26T11:55:29.776Z,100629.84
2022-12-26T11:58:00.364Z,100635.53
2022-12-26T12:00:29.084Z,100635.63
2022-12-26T12:02:56.078Z,100641.91
2022-12-26T12:05:43.749Z,100635.97
2022-12-26T12:08:22.564Z,100626.66
2022-12-26T12:10:58.901Z,100634.31
2022-12-26T12:13:50.732Z,100631.63
2022-12-26T12:16:36.461Z,100640.78
2022-12-26T12:19:27.538Z,100635.38
2022-12-26T12:22:24.534Z,100637.72
2022-12-26T12:25:11.598Z,100636.34
2022-12-26T12:28:06.687Z,100632.94
2022-12-26T12:30:51.880Z,100635.19
2022-12-26T12:33:47.732Z,100626.09
2022-12-26T12:36:53.417Z,100632.84
2022-12-26T12:39:41.725Z,100618.19
2022-12-26T12:42:11.213Z,100608.41
2022-12-26T12:45:20.239Z,100612.19
2022-12-26T12:48:11.648Z,100601.59
2022-12-26T12:51:04.913Z,100596.28
2022-12-26T12:53:35.348Z,100600.41
2022-12-26T12:56:42.271Z,100594.75
2022-12-26T12:59:35.418Z,100591.94
2022-12-26T13:02:20.227Z,100592.63
2022-12-26T13:04:55.264Z,100593.53
2022-12-26T13:07:28.154Z,100587.91
2022-12-26T13:10:00.421Z,100585.28
2022-12-26T13:12:40.036Z,100577.84
2022-12-26T13:15:19.189Z,100571.41
2022-12-26T13:18:10.800Z,100583.88
2022-12-26T13:20:51.068Z,100578.69
2022-12-26T13:24:07.474Z,100595.03
2022-12-26T13:26:41.889Z,100595.28
2022-12-26T13:29:33.563Z,100595.16
2022-12-26T13:32:02.157Z,100582.19
2022-12-26T13:34:29.094Z,100575.47
2022-12-26T13:36:58.261Z,100574.66
2022-12-26T13:39:30.635Z,100571.13
2022-12-26T13:42:28.593Z,100578.69
2022-12-26T13:44:55.518Z,100573.03
2022-12-26T13:47:38.101Z,100584.81
2022-12-26T13:50:42.236Z,100589.63
2022-12-26T13:53:27.145Z,100581.09
2022-12-26T13:55:56.817Z,100579.34
2022-12-26T13:58:35.828Z,100587.81
2022-12-26T14:01:33.342Z,100584.06
2022-12-26T14:04:28.387Z,100591.69
2022-12-26T14:07:17.937Z,100582.00
2022-12-26T14:10:36.771Z,100595.06
2022-12-26T14:13:42.273Z,100590.34
2022-12-26T14:16:25.619Z,100595.63
2022-12-26T14:19:29.725Z,100593.38
2022-12-26T14:22:17.923Z,100592.06
2022-12-26T14:25:02.776Z,100587.09
2022-12-26T14:27:45.077Z,100585.94
2022-12-26T14:30:30.194Z,100595.16
2022-12-26T14:33:11.813Z,100585.06
2022-12-26T14:35:52.140Z,100603.09
2022-12-26T14:38:37.847Z,100599.44
2022-12-26T14:41:12.407Z,100587.72
2022-12-26T14:43:41.408Z,100597.78
2022-12-26T14:46:32.780Z,100598.09
2022-12-26T14:49:21.806Z,100587.28
2022-12-26T14:51:49.663Z,100597.94
2022-12-26T14:54:28.817Z,100593.66
2022-12-26T14:56:56.180Z,100599.75
2022-12-26T14:59:34.563Z,100602.44
2022-12-26T15:02:11.932Z,100597.34
2022-12-26T15:04:46.195Z,100598.91
2022-12-26T15:07:47.663Z,100581.31
2022-12-26T15:10:42.825Z,100588.91
2022-12-26T15:13:28.110Z,100594.53
2022-12-26T15:16:29.095Z,100596.25
2022-12-26T15:19:20.436Z,100602.31
2022-12-26T15:22:08.580Z,100587.66
2022-12-26T15:25:20.485Z,100599.94
2022-12-26T15:27:53.286Z,100605.34
2022-12-26T15:30:31.372Z,100602.94
2022-12-26T15:33:44.605Z,100596.28
2022-12-26T15:36:34.160Z,100593.44
2022-12-26T15:39:21.396Z,100602.63
2022-12-26T15:41:56.198Z,100600.34
2022-12-26T15:44:29.769Z,100596.41
2022-12-26T15:47:18.180Z,100598.72
2022-12-26T15:49:58.385Z,100602.88
2022-12-26T15:52:28.331Z,100605.25
2022-12-26T15:55:07.066Z,100605.84
2022-12-26T15:57:56.128Z,100611.50
2022-12-26T16:00:25.943Z,100609.03
2022-12-26T16:03:17.556Z,100604.06
2022-12-26T16:05:56.501Z,100613.19
2022-12-26T16:08:46.519Z,100624.22
2022-12-26T16:11:16.215Z,100625.25
2022-12-26T16:13:52.699Z,100627.72
2022-12-26T16:16:38.742Z,100624.81
2022-12-26T16:19:22.253Z,100633.94
2022-12-26T16:22:18.896Z,100622.31
2022-12-26T16:24:47.417Z,100619.00
2022-12-26T16:27:25.532Z,100628.97
2022-12-26T16:30:05.056Z,100633.97
2022-12-26T16:32:37.835Z,100631.53
2022-12-26T16:35:07.581Z,100635.28
2022-12-26T16:37:34.604Z,100619.53
2022-12-26T16:40:18.268Z,100626.41
2022-12-26T16:42:56.376Z,100625.19
2022-12-26T16:45:27.291Z,100624.75
2022-12-26T16:47:55.259Z,100619.56
2022-12-26T16:50:27.483Z,100618.34
2022-12-26T16:53:10.530Z,100619.38
2022-12-26T16:55:42.855Z,100620.44
2022-12-26T16:58:23.877Z,100619.00
2022-12-26T17:01:00.597Z,100619.41
2022-12-26T17:04:04.165Z,100615.03
2022-12-26T17:06:40.954Z,100612.16
2022-12-26T17:09:17.182Z,100611.31
2022-12-26T17:11:59.411Z,100606.34
2022-12-26T17:14:36.943Z,100610.91
2022-12-26T17:17:08.545Z,100603.44
2022-12-26T17:19:37.053Z,100608.88
2022-12-26T17:22:18.034Z,100611.53
2022-12-26T17:24:46.135Z,100606.56
2022-12-26T17:27:23.504Z,100608.00
2022-12-26T17:29:53.422Z,100619.84
2022-12-26T17:32:48.279Z,100629.59
2022-12-26T17:35:25.793Z,100623.19
2022-12-26T17:38:06.197Z,100616.34
2022-12-26T17:40:36.062Z,100615.34
2022-12-26T17:43:12.288Z,100617.22
2022-12-26T17:45:46.618Z,100608.88
2022-12-26T17:48:13.972Z,100601.81
2022-12-26T17:50:46.053Z,100602.63
2022-12-26T17:53:33.326Z,100601.81
2022-12-26T17:56:03.772Z,100615.09
2022-12-26T17:58:31.457Z,100610.97
2022-12-26T18:00:59.404Z,100608.03
2022-12-26T18:03:29.117Z,100617.38
2022-12-26T18:05:56.605Z,100627.09
2022-12-26T18:08:40.307Z,100620.84
2022-12-26T18:11:11.337Z,100614.59
2022-12-26T18:13:41.180Z,100621.22
2022-12-26T18:16:09.309Z,100622.44
2022-12-26T18:18:46.275Z,100615.59
2022-12-26T18:21:17.487Z,100619.53
2022-12-26T18:23:47.052Z,100614.16
2022-12-26T18:26:29.449Z,100616.81
2022-12-26T18:28:57.818Z,100614.72
2022-12-26T18:31:28.025Z,100614.09
2022-12-26T18:33:58.441Z,100606.81
2022-12-26T18:36:44.367Z,100606.78
2022-12-26T18:39:20.209Z,100602.03
2022-12-26T18:41:52.206Z,100597.88
2022-12-26T18:44:20.713Z,100597.25
2022-12-26T18:46:50.057Z,100586.25
2022-12-26T18:49:34.561Z,100583.56
2022-12-26T18:52:07.072Z,100580.44
2022-12-26T18:54:36.401Z,100581.31
2022-12-26T18:57:19.248Z,100576.53
2022-12-26T18:59:52.029Z,100573.66
2022-12-26T19:02:30.551Z,100576.75
2022-12-26T19:05:03.762Z,100580.25
2022-12-26T19:07:30.860Z,100570.97
2022-12-26T19:10:01.066Z,100569.53
2022-12-26T19:12:28.041Z,100570.75
2022-12-26T19:14:54.964Z,100568.25
2022-12-26T19:17:24.717Z,100565.97
2022-12-26T19:19:54.304Z,100575.50
2022-12-26T19:22:24.107Z,100577.81
2022-12-26T19:25:06.319Z,100567.38
2022-12-26T19:27:33.219Z,100571.72
2022-12-26T19:30:00.383Z,100578.34
2022-12-26T19:32:27.332Z,100572.16
2022-12-26T19:34:56.222Z,100577.28
2022-12-26T19:37:23.781Z,100573.75
2022-12-26T19:39:51.101Z,100577.09
2022-12-26T19:42:18.120Z,100577.91
2022-12-26T19:44:44.981Z,100580.00
2022-12-26T19:47:13.123Z,100574.22
2022-12-26T19:49:41.555Z,100570.81
2022-12-26T19:52:10.589Z,100584.53
2022-12-26T19:54:37.761Z,100585.09
2022-12-26T19:57:05.023Z,100584.28
2022-12-26T19:59:32.158Z,100581.22
2022-12-26T20:01:59.376Z,100571.59
2022-12-26T20:04:26.347Z,100574.13
2022-12-26T20:06:53.268Z,100575.41
2022-12-26T20:09:20.122Z,100564.19
2022-12-26T20:11:54.173Z,100571.31
2022-12-26T20:14:23.450Z,100565.78
2022-12-26T20:17:09.135Z,100559.03
2022-12-26T20:19:37.169Z,100568.56
2022-12-26T20:22:05.215Z,100561.72
2022-12-26T20:24:32.347Z,100559.00
2022-12-26T20:26:59.305Z,100566.31
2022-12-26T20:29:26.241Z,100576.03
2022-12-26T20:31:55.455Z,100567.31
2022-12-26T20:34:22.709Z,100574.53
2022-12-26T20:36:49.565Z,100580.16
2022-12-26T20:39:19.165Z,100575.16
2022-12-26T20:41:46.512Z,100581.78
2022-12-26T20:44:14.845Z,100582.78
2022-12-26T20:46:43.337Z,100586.09
2022-12-26T20:49:10.990Z,100580.06
2022-12-26T20:51:41.218Z,100570.72
2022-12-26T20:54:10.443Z,100582.31
2022-12-26T20:56:38.250Z,100587.91
2022-12-26T20:59:06.368Z,100593.50
2022-12-26T21:01:33.840Z,100592.03
2022-12-26T21:04:00.773Z,100595.31
2022-12-26T21:06:35.704Z,100601.09
2022-12-26T21:09:04.732Z,100603.19
2022-12-26T21:11:34.602Z,100601.91
2022-12-26T21:14:04.530Z,100613.38
2022-12-26T21:16:44.275Z,100606.94
2022-12-26T21:19:15.615Z,100603.25
2022-12-26T21:21:47.227Z,100603.88
2022-12-26T21:24:21.820Z,100611.75
2022-12-26T21:26:49.263Z,100614.22
2022-12-26T21:29:28.775Z,100606.50
2022-12-26T21:31:56.986Z,100599.06
2022-12-26T21:34:32.726Z,100612.16
2022-12-26T21:37:22.245Z,100609.63
2022-12-26T21:39:50.768Z,100603.03
2022-12-26T21:42:17.769Z,100610.97
2022-12-26T21:44:44.613Z,100620.25
2022-12-26T21:47:15.545Z,100615.72
2022-12-26T21:49:42.494Z,100619.00
2022-12-26T21:52:10.607Z,100608.38
2022-12-26T21:54:56.299Z,100608.81
2022-12-26T21:57:24.007Z,100621.69
2022-12-26T21:59:57.121Z,100620.22
2022-12-26T22:03:00.916Z,100631.84
2022-12-26T22:05:32.639Z,100649.03
2022-12-26T22:08:05.563Z,100655.47
2022-12-26T22:10:55.600Z,100656.66
2022-12-26T22:13:23.109Z,100664.41
2022-12-26T22:16:04.717Z,100670.25
2022-12-26T22:18:38.482Z,100667.75
2022-12-26T22:21:20.699Z,100673.53
2022-12-26T22:23:50.682Z,100665.22
2022-12-26T22:26:18.469Z,100672.69
2022-12-26T22:28:45.769Z,100673.31
2022-12-26T22:31:24.828Z,100683.34
2022-12-26T22:33:56.540Z,100675.84
2022-12-26T22:36:23.558Z,100679.38
2022-12-26T22:38:50.516Z,100679.53
2022-12-26T22:41:17.835Z,100675.19
2022-12-26T22:43:45.251Z,100680.44
2022-12-26T22:46:13.387Z,100679.44
2022-12-26T22:48:40.657Z,100679.00
2022-12-26T22:51:07.899Z,100683.50
2022-12-26T22:53:35.105Z,100688.28
2022-12-26T22:56:05.945Z,100690.41
2022-12-26T22:58:33.795Z,100678.50
2022-12-26T23:01:01.151Z,100678.34
2022-12-26T23:03:28.914Z,100682.72
2022-12-26T23:05:56.545Z,100687.53
2022-12-26T23:08:26.771Z,100695.00
2022-12-26T23:10:57.638Z,100701.22
2022-12-26T23:13:24.854Z,100701.22
2022-12-26T23:15:54.951Z,100687.13
2022-12-26T23:18:56.034Z,100706.00
2022-12-26T23:21:46.492Z,100715.03
2022-12-26T23:24:25.556Z,100703.84
2022-12-26T23:27:19.389Z,100703.22
2022-12-26T23:30:05.009Z,100705.03
2022-12-26T23:32:32.708Z,100715.63
2022-12-26T23:35:00.029Z,100710.22
2022-12-26T23:37:27.291Z,100711.22
2022-12-26T23:39:54.266Z,100719.56
2022-12-26T23:42:21.267Z,100714.75
2022-12-26T23:44:48.184Z,100711.69
2022-12-26T23:47:15.369Z,100710.63
2022-12-26T23:49:42.274Z,100701.44
2022-12-26T23:52:09.478Z,100705.41
2022-12-26T23:54:36.407Z,100707.94
2022-12-26T23:57:03.402Z,100703.75
2022-12-26T23:59:30.327Z,100713.38
